Time;durP1;ratioP1;P1;durP2;ratioP2;P2;SDS_P1;SDS_P2;PMS_P1;PMS_P2;Temp;Humidity;BMP_temperature;BMP_pressure;BME280_temperature;BME280_humidity;BME280_pressure;Samples;Min_cycle;Max_cycle;Signal;HPM_P1;HPM_P2
2023/12/12 00:01:54;;;;;;;39.40;18.70;;;;;;;5.88;100.00;100318.38;108122;1281;22161;-64
2023/12/12 00:04:20;;;;;;;37.00;17.60;;;;;;;5.89;100.00;100322.39;108215;1287;21992;-64
2023/12/12 00:06:45;;;;;;;38.20;19.30;;;;;;;5.91;100.00;100321.89;108152;1287;21989;-60
2023/12/12 00:09:11;;;;;;;38.60;19.30;;;;;;;5.94;100.00;100321.90;107400;1287;1002270;-63
2023/12/12 00:11:37;;;;;;;37.80;19.30;;;;;;;5.95;100.00;100321.21;108116;1275;21980;-63
2023/12/12 00:14:02;;;;;;;42.20;20.20;;;;;;;5.95;100.00;100324.52;108211;1274;22562;-60
2023/12/12 00:16:28;;;;;;;38.30;19.30;;;;;;;5.95;100.00;100327.31;108126;1287;21999;-64
2023/12/12 00:18:54;;;;;;;39.10;20.50;;;;;;;5.97;100.00;100331.84;108177;1281;22212;-65
2023/12/12 00:21:22;;;;;;;39.50;19.30;;;;;;;6.00;100.00;100331.52;108152;1287;23064;-61
2023/12/12 00:23:50;;;;;;;38.30;18.50;;;;;;;6.01;100.00;100328.59;108178;1287;21994;-64
2023/12/12 00:26:16;;;;;;;37.00;18.30;;;;;;;6.04;100.00;100326.16;108154;1281;21986;-61
2023/12/12 00:28:42;;;;;;;37.90;18.40;;;;;;;6.07;100.00;100326.89;108145;1284;21987;-64
2023/12/12 00:31:07;;;;;;;37.80;17.60;;;;;;;6.10;100.00;100326.38;108130;1287;22093;-60
2023/12/12 00:33:33;;;;;;;35.40;17.90;;;;;;;6.13;100.00;100325.00;108160;1282;22054;-64
2023/12/12 00:35:59;;;;;;;35.80;17.40;;;;;;;6.15;100.00;100329.02;108141;1287;23054;-60
2023/12/12 00:38:28;;;;;;;35.90;19.40;;;;;;;6.15;100.00;100335.11;108261;1284;22457;-60
2023/12/12 00:40:57;;;;;;;37.80;18.70;;;;;;;6.14;100.00;100343.46;108206;1287;21988;-60
2023/12/12 00:43:23;;;;;;;33.80;16.90;;;;;;;6.14;100.00;100352.89;107410;1287;1003095;-60
2023/12/12 00:45:48;;;;;;;42.50;18.20;;;;;;;6.15;100.00;100354.63;108096;1287;21992;-60
2023/12/12 00:48:14;;;;;;;40.00;18.30;;;;;;;6.17;100.00;100349.23;108131;1287;21987;-64
2023/12/12 00:50:40;;;;;;;35.30;16.70;;;;;;;6.20;100.00;100347.33;108135;1287;22515;-64
2023/12/12 00:53:05;;;;;;;38.90;18.60;;;;;;;6.23;100.00;100346.12;108175;1275;21984;-64
2023/12/12 00:55:31;;;;;;;34.70;17.50;;;;;;;6.23;100.00;100340.04;108206;1287;21964;-64
2023/12/12 00:57:56;;;;;;;37.40;18.90;;;;;;;6.27;100.00;100334.13;108148;1287;21964;-64
2023/12/12 01:00:24;;;;;;;42.30;19.20;;;;;;;6.28;100.00;100329.07;108140;1287;21999;-63
2023/12/12 01:02:50;;;;;;;38.10;18.30;;;;;;;6.28;100.00;100330.13;108112;1281;22049;-60
2023/12/12 01:05:16;;;;;;;35.80;18.00;;;;;;;6.27;100.00;100329.08;108133;1287;22046;-61
2023/12/12 01:07:41;;;;;;;35.40;18.50;;;;;;;6.27;100.00;100326.80;108107;1281;21987;-64
2023/12/12 01:10:07;;;;;;;41.80;18.30;;;;;;;6.29;100.00;100325.60;108169;1287;21992;-64
2023/12/12 01:12:34;;;;;;;36.90;18.70;;;;;;;6.29;100.00;100323.85;108186;1287;21995;-60
2023/12/12 01:14:59;;;;;;;39.20;19.30;;;;;;;6.29;100.00;100317.92;108217;1274;21998;-60
2023/12/12 01:17:26;;;;;;;37.80;18.10;;;;;;;6.30;100.00;100315.48;108122;1287;22000;-62
2023/12/12 01:19:52;;;;;;;39.30;19.00;;;;;;;6.32;100.00;100308.01;108197;1287;21989;-59
2023/12/12 01:22:17;;;;;;;41.30;22.50;;;;;;;6.36;100.00;100301.58;108227;1287;21999;-63
2023/12/12 01:24:43;;;;;;;40.90;18.90;;;;;;;6.38;100.00;100297.05;108159;1285;21999;-63
2023/12/12 01:27:11;;;;;;;50.90;22.40;;;;;;;6.39;100.00;100292.52;108131;1288;21975;-63
2023/12/12 01:29:40;;;;;;;73.30;40.30;;;;;;;6.39;100.00;100290.09;108097;1288;22452;-64
2023/12/12 01:32:05;;;;;;;47.40;24.40;;;;;;;6.37;100.00;100280.32;108146;1288;21991;-60
2023/12/12 01:34:31;;;;;;;53.60;23.90;;;;;;;6.36;100.00;100277.88;108080;1288;21994;-59
2023/12/12 01:36:57;;;;;;;49.60;23.50;;;;;;;6.36;100.00;100277.52;108098;1281;21989;-64
2023/12/12 01:39:22;;;;;;;45.80;21.20;;;;;;;6.39;100.00;100271.95;108126;1288;21989;-63
2023/12/12 01:41:48;;;;;;;47.40;21.40;;;;;;;6.41;100.00;100267.95;108116;1278;22460;-63
2023/12/12 01:44:14;;;;;;;62.20;28.60;;;;;;;6.45;100.00;100274.40;108136;1288;21995;-62
2023/12/12 01:46:48;;;;;;;45.50;21.40;;;;;;;6.48;100.00;100294.98;108097;1287;21994;-60
2023/12/12 01:49:16;;;;;;;45.30;21.40;;;;;;;6.46;100.00;100302.82;108120;1288;21992;-60
2023/12/12 01:51:43;;;;;;;50.30;24.00;;;;;;;6.38;100.00;100292.69;108020;1288;21986;-60
2023/12/12 01:54:08;;;;;;;45.70;20.90;;;;;;;6.36;100.00;100290.77;108150;1288;22000;-64
2023/12/12 01:56:34;;;;;;;39.10;17.60;;;;;;;6.35;100.00;100287.80;107971;1289;21999;-62
2023/12/12 01:58:59;;;;;;;43.50;18.70;;;;;;;6.35;100.00;100283.27;108000;1288;21996;-60
2023/12/12 02:01:26;;;;;;;43.40;18.60;;;;;;;6.37;100.00;100291.81;108124;1288;22000;-65
2023/12/12 02:03:52;;;;;;;42.70;19.40;;;;;;;6.39;100.00;100284.67;107881;1287;22001;-60
2023/12/12 02:06:22;;;;;;;40.10;19.00;;;;;;;6.42;100.00;100281.71;108125;1288;22000;-65
2023/12/12 02:08:51;;;;;;;42.30;19.30;;;;;;;6.46;100.00;100277.20;108012;1288;21989;-60
2023/12/12 02:11:17;;;;;;;44.10;18.80;;;;;;;6.49;100.00;100273.38;108097;1288;21989;-64
2023/12/12 02:13:43;;;;;;;42.70;19.30;;;;;;;6.52;100.00;100271.11;108121;1277;22007;-60
2023/12/12 02:16:09;;;;;;;40.90;18.20;;;;;;;6.55;100.00;100272.52;108093;1288;22049;-60
2023/12/12 02:18:34;;;;;;;39.20;17.70;;;;;;;6.56;100.00;100273.57;107328;1288;1002226;-60
2023/12/12 02:21:01;;;;;;;41.90;17.80;;;;;;;6.58;100.00;100269.57;108115;1284;22455;-64
2023/12/12 02:23:30;;;;;;;42.80;18.00;;;;;;;6.56;100.00;100270.95;108114;1285;21994;-64
2023/12/12 02:25:55;;;;;;;42.10;19.00;;;;;;;6.55;100.00;100268.52;108146;1284;21996;-60
2023/12/12 02:28:21;;;;;;;37.10;16.50;;;;;;;6.58;100.00;100266.25;108181;1287;21989;-60
2023/12/12 02:30:47;;;;;;;27.80;14.40;;;;;;;6.62;100.00;100267.13;108159;1283;21994;-59
2023/12/12 02:33:12;;;;;;;34.90;16.50;;;;;;;6.61;100.00;100264.00;108179;1287;22435;-60
2023/12/12 02:35:38;;;;;;;34.70;16.80;;;;;;;6.63;100.00;100255.27;108212;1287;21989;-60
2023/12/12 02:38:04;;;;;;;34.90;15.60;;;;;;;6.65;100.00;100248.47;108150;1287;21989;-60
2023/12/12 02:40:29;;;;;;;33.50;16.40;;;;;;;6.66;100.00;100243.24;108142;1282;21985;-64
2023/12/12 02:42:55;;;;;;;29.40;15.30;;;;;;;6.64;100.00;100246.55;108138;1287;22026;-60
2023/12/12 02:45:20;;;;;;;26.20;13.10;;;;;;;6.62;100.00;100242.90;108255;1287;22026;-59
2023/12/12 02:47:46;;;;;;;30.20;14.20;;;;;;;6.60;100.00;100229.81;108119;1287;21983;-60
2023/12/12 02:50:12;;;;;;;29.00;14.30;;;;;;;6.60;100.00;100225.30;108141;1287;22000;-63
2023/12/12 02:52:37;;;;;;;31.80;16.40;;;;;;;6.61;100.00;100222.67;108176;1282;21990;-64
2023/12/12 02:55:03;;;;;;;31.40;15.40;;;;;;;6.61;100.00;100230.00;107443;1287;1007001;-63
2023/12/12 02:57:29;;;;;;;29.70;13.40;;;;;;;6.62;100.00;100229.64;108249;1287;21989;-61
2023/12/12 02:59:54;;;;;;;25.40;14.40;;;;;;;6.63;100.00;100228.25;108165;1277;22024;-64
2023/12/12 03:02:20;;;;;;;35.90;15.80;;;;;;;6.64;100.00;100224.59;108127;1285;22567;-60
2023/12/12 03:04:46;;;;;;;30.30;15.30;;;;;;;6.66;100.00;100231.56;108136;1287;21989;-60
2023/12/12 03:07:11;;;;;;;30.70;14.90;;;;;;;6.67;100.00;100233.83;108174;1287;21992;-64
2023/12/12 03:09:40;;;;;;;37.70;16.90;;;;;;;6.68;100.00;100233.67;108206;1287;21992;-59
2023/12/12 03:12:06;;;;;;;39.90;15.80;;;;;;;6.71;100.00;100230.87;107429;1287;1002325;-64
2023/12/12 03:14:34;;;;;;;33.50;15.70;;;;;;;6.72;100.00;100230.02;108148;1287;21984;-64
2023/12/12 03:17:00;;;;;;;39.10;16.80;;;;;;;6.75;100.00;100232.10;108201;1275;21996;-64
2023/12/12 03:19:25;;;;;;;37.20;15.90;;;;;;;6.75;100.00;100232.63;108140;1286;21994;-64
2023/12/12 03:21:51;;;;;;;36.90;17.00;;;;;;;6.75;100.00;100226.17;108160;1280;21987;-64
2023/12/12 03:24:17;;;;;;;40.60;17.60;;;;;;;6.76;100.00;100218.33;108138;1287;21992;-64
2023/12/12 03:26:43;;;;;;;29.20;14.10;;;;;;;6.76;100.00;100216.42;108129;1288;21991;-60
2023/12/12 03:29:09;;;;;;;26.90;13.70;;;;;;;6.75;100.00;100215.89;108141;1288;21998;-60
2023/12/12 03:31:34;;;;;;;26.40;13.00;;;;;;;6.75;100.00;100212.57;108076;1288;21991;-65
2023/12/12 03:34:00;;;;;;;28.50;14.50;;;;;;;6.76;100.00;100205.59;108105;1288;22010;-60
2023/12/12 03:36:25;;;;;;;31.40;16.30;;;;;;;6.77;100.00;100195.30;108095;1281;22004;-65
2023/12/12 03:38:51;;;;;;;31.10;16.50;;;;;;;6.78;100.00;100190.08;108104;1287;22028;-59
2023/12/12 03:41:16;;;;;;;30.20;14.70;;;;;;;6.75;100.00;100189.89;107342;1288;1003192;-60
2023/12/12 03:43:42;;;;;;;30.30;14.60;;;;;;;6.71;100.00;100194.09;108084;1288;21996;-65
2023/12/12 03:46:14;;;;;;;32.10;13.10;;;;;;;6.71;100.00;100203.67;108082;1288;21997;-65
2023/12/12 03:48:42;;;;;;;37.40;16.70;;;;;;;6.69;100.00;100208.20;108096;1288;22096;-63
2023/12/12 03:51:11;;;;;;;29.50;13.20;;;;;;;6.69;100.00;100208.20;108139;1288;21992;-65
2023/12/12 03:53:36;;;;;;;34.20;15.40;;;;;;;6.69;100.00;100202.10;108119;1280;21983;-60
2023/12/12 03:56:03;;;;;;;27.10;12.80;;;;;;;6.70;100.00;100197.92;108094;1283;22004;-60
2023/12/12 03:58:29;;;;;;;34.30;15.70;;;;;;;6.68;100.00;100196.70;108160;1281;21995;-59
2023/12/12 04:00:55;;;;;;;36.90;17.90;;;;;;;6.66;100.00;100204.89;108106;1281;21988;-65
2023/12/12 04:03:21;;;;;;;34.10;14.70;;;;;;;6.65;100.00;100204.52;108107;1283;21992;-65
2023/12/12 04:05:46;;;;;;;32.00;14.60;;;;;;;6.64;100.00;100204.52;108157;1288;21994;-60
2023/12/12 04:08:15;;;;;;;32.00;15.90;;;;;;;6.65;100.00;100202.96;108102;1277;21985;-65
2023/12/12 04:10:40;;;;;;;35.10;15.20;;;;;;;6.68;100.00;100204.71;108113;1283;21989;-60
2023/12/12 04:13:06;;;;;;;33.20;15.90;;;;;;;6.71;100.00;100205.94;108111;1288;21995;-62
2023/12/12 04:15:32;;;;;;;38.60;18.10;;;;;;;6.74;100.00;100200.36;108117;1287;21997;-65
2023/12/12 04:17:57;;;;;;;33.60;15.30;;;;;;;6.77;100.00;100200.19;108103;1287;22454;-64
2023/12/12 04:20:23;;;;;;;38.00;16.20;;;;;;;6.79;100.00;100200.36;108182;1287;21988;-65
2023/12/12 04:22:48;;;;;;;33.60;15.80;;;;;;;6.78;100.00;100201.92;108133;1277;21988;-65
2023/12/12 04:25:14;;;;;;;39.20;16.60;;;;;;;6.78;100.00;100202.47;108125;1287;21991;-64
2023/12/12 04:27:40;;;;;;;33.90;17.00;;;;;;;6.77;100.00;100197.05;108098;1283;21982;-65
2023/12/12 04:30:06;;;;;;;30.80;14.70;;;;;;;6.74;100.00;100189.55;108124;1286;21994;-64
2023/12/12 04:32:32;;;;;;;31.90;13.80;;;;;;;6.73;100.00;100188.48;108127;1278;21987;-60
2023/12/12 04:34:59;;;;;;;32.60;15.80;;;;;;;6.74;100.00;100193.73;108151;1276;22029;-59
2023/12/12 04:37:25;;;;;;;32.10;14.90;;;;;;;6.75;100.00;100193.73;108127;1287;21995;-60
2023/12/12 04:39:53;;;;;;;33.10;17.00;;;;;;;6.77;100.00;100192.86;108075;1287;21990;-64
2023/12/12 04:42:19;;;;;;;33.60;16.30;;;;;;;6.77;100.00;100195.13;108124;1287;21986;-59
2023/12/12 04:44:45;;;;;;;37.40;16.50;;;;;;;6.76;100.00;100192.86;108088;1287;22006;-64
2023/12/12 04:47:11;;;;;;;37.50;17.40;;;;;;;6.77;100.00;100191.11;108121;1287;21992;-61
2023/12/12 04:49:36;;;;;;;27.90;14.50;;;;;;;6.77;100.00;100195.14;108115;1287;21983;-64
2023/12/12 04:52:02;;;;;;;32.60;15.90;;;;;;;6.77;100.00;100197.93;108128;1287;22000;-59
2023/12/12 04:54:28;;;;;;;30.90;15.20;;;;;;;6.82;100.00;100205.25;108636;1284;21922;-61
2023/12/12 04:56:54;;;;;;;31.60;15.90;;;;;;;6.86;100.00;100207.33;108268;1287;21991;-65
2023/12/12 04:59:20;;;;;;;29.20;14.40;;;;;;;6.87;100.00;100205.06;108158;1276;21992;-61
2023/12/12 05:01:46;;;;;;;34.80;16.00;;;;;;;6.87;100.00;100206.98;108091;1287;21977;-65
2023/12/12 05:04:11;;;;;;;27.80;14.80;;;;;;;6.87;100.00;100209.08;108117;1287;21992;-66
2023/12/12 05:06:37;;;;;;;30.10;14.90;;;;;;;6.89;100.00;100212.40;108075;1287;21996;-63
2023/12/12 05:09:03;;;;;;;26.60;13.20;;;;;;;6.93;100.00;100214.85;108111;1286;22086;-60
2023/12/12 05:11:29;;;;;;;29.80;15.40;;;;;;;6.95;100.00;100216.59;108142;1287;21992;-65
2023/12/12 05:13:58;;;;;;;31.70;15.00;;;;;;;6.96;100.00;100213.44;108122;1286;22001;-65
2023/12/12 05:16:24;;;;;;;29.90;14.70;;;;;;;6.99;100.00;100215.02;108167;1287;21992;-66
2023/12/12 05:18:49;;;;;;;31.50;14.80;;;;;;;6.98;100.00;100211.70;108110;1287;21992;-61
2023/12/12 05:21:16;;;;;;;35.10;16.20;;;;;;;6.99;100.00;100209.27;108318;1287;22001;-61
2023/12/12 05:23:42;;;;;;;38.90;17.90;;;;;;;7.02;100.00;100210.49;108230;1282;21993;-65
2023/12/12 05:26:08;;;;;;;39.80;16.40;;;;;;;7.02;100.00;100209.09;108251;1284;21992;-61
2023/12/12 05:28:33;;;;;;;37.90;16.50;;;;;;;7.05;100.00;100208.21;108166;1278;21985;-64
2023/12/12 05:30:59;;;;;;;44.80;17.50;;;;;;;7.08;100.00;100205.75;108121;1288;21991;-66
2023/12/12 05:33:25;;;;;;;37.40;16.30;;;;;;;7.13;100.00;100207.33;108080;1288;21984;-67
2023/12/12 05:35:50;;;;;;;43.70;20.00;;;;;;;7.17;100.00;100207.85;108102;1288;21984;-66
2023/12/12 05:38:16;;;;;;;45.60;18.90;;;;;;;7.22;100.00;100211.70;108123;1288;22023;-67
2023/12/12 05:40:42;;;;;;;50.00;18.70;;;;;;;7.26;100.00;100211.16;108103;1278;22065;-67
2023/12/12 05:43:09;;;;;;;48.90;20.40;;;;;;;7.30;100.00;100210.61;108099;1288;21992;-62
2023/12/12 05:45:35;;;;;;;52.30;19.10;;;;;;;7.33;100.00;100214.10;108180;1288;24504;-66
2023/12/12 05:48:03;;;;;;;53.50;21.40;;;;;;;7.36;100.00;100210.27;108121;1278;21991;-66
2023/12/12 05:50:29;;;;;;;50.90;20.30;;;;;;;7.40;100.00;100210.27;108156;1288;21992;-60
2023/12/12 05:52:55;;;;;;;48.70;19.20;;;;;;;7.42;100.00;100212.70;108155;1286;21994;-61
2023/12/12 05:55:21;;;;;;;57.50;20.30;;;;;;;7.42;100.00;100217.77;108156;1277;21997;-67
2023/12/12 05:57:50;;;;;;;49.60;21.40;;;;;;;7.41;100.00;100223.18;108200;1281;22257;-66
2023/12/12 06:00:16;;;;;;;53.60;22.70;;;;;;;7.38;100.00;100228.59;108132;1281;22347;-66
2023/12/12 06:02:42;;;;;;;51.10;20.20;;;;;;;7.34;100.00;100229.82;108162;1287;22000;-66
2023/12/12 06:05:08;;;;;;;58.00;22.10;;;;;;;7.29;100.00;100234.02;108146;1287;21990;-66
2023/12/12 06:07:34;;;;;;;52.30;20.10;;;;;;;7.25;100.00;100233.34;108102;1287;21998;-61
2023/12/12 06:10:00;;;;;;;51.50;20.70;;;;;;;7.24;100.00;100234.38;108240;1285;22030;-66
2023/12/12 06:12:28;;;;;;;61.50;23.30;;;;;;;7.23;100.00;100232.45;108162;1283;21998;-65
2023/12/12 06:14:54;;;;;;;52.00;20.90;;;;;;;7.25;100.00;100232.80;108128;1286;22026;-60
2023/12/12 06:17:20;;;;;;;51.80;19.80;;;;;;;7.27;100.00;100234.73;107951;1287;21988;-65
2023/12/12 06:19:46;;;;;;;52.90;21.90;;;;;;;7.30;100.00;100236.80;108107;1287;21987;-65
2023/12/12 06:22:11;;;;;;;44.80;18.40;;;;;;;7.30;100.00;100233.48;108096;1287;21990;-62
2023/12/12 06:24:37;;;;;;;53.70;21.80;;;;;;;7.29;100.00;100238.03;108108;1287;21986;-66
2023/12/12 06:27:02;;;;;;;49.10;20.70;;;;;;;7.28;100.00;100247.80;108111;1287;21993;-63
2023/12/12 06:29:28;;;;;;;55.60;22.00;;;;;;;7.28;100.00;100251.29;108096;1284;23077;-61
2023/12/12 06:31:54;;;;;;;49.60;20.60;;;;;;;7.32;100.00;100250.23;108171;1287;21992;-66
2023/12/12 06:34:20;;;;;;;47.90;20.80;;;;;;;7.36;100.00;100246.75;108122;1287;22030;-66
2023/12/12 06:36:46;;;;;;;41.30;17.70;;;;;;;7.38;100.00;100254.08;108118;1287;21996;-61
2023/12/12 06:39:13;;;;;;;50.70;20.10;;;;;;;7.39;100.00;100257.57;108003;1276;169008;-60
2023/12/12 06:41:38;;;;;;;40.80;17.30;;;;;;;7.41;100.00;100255.13;108097;1287;21987;-60
2023/12/12 06:44:06;;;;;;;38.80;17.30;;;;;;;7.40;100.00;100252.34;108119;1287;21991;-65
2023/12/12 06:46:32;;;;;;;39.00;17.30;;;;;;;7.41;100.00;100252.16;108092;1281;21989;-60
2023/12/12 06:48:57;;;;;;;31.10;16.60;;;;;;;7.44;100.00;100256.35;108128;1287;21994;-60
2023/12/12 06:51:23;;;;;;;33.90;17.70;;;;;;;7.48;100.00;100261.05;108049;1287;24409;-66
2023/12/12 06:53:49;;;;;;;34.00;17.30;;;;;;;7.48;100.00;100246.73;108097;1287;21988;-60
2023/12/12 06:56:14;;;;;;;33.90;15.90;;;;;;;7.51;100.00;100237.30;108125;1287;22000;-61
2023/12/12 06:58:40;;;;;;;45.40;17.60;;;;;;;7.54;100.00;100243.92;108140;1287;21993;-59
2023/12/12 07:01:08;;;;;;;35.00;17.00;;;;;;;7.58;100.00;100252.13;108141;1280;21997;-65
2023/12/12 07:03:34;;;;;;;30.90;15.30;;;;;;;7.62;100.00;100252.81;108186;1276;21994;-60
2023/12/12 07:06:02;;;;;;;34.40;15.30;;;;;;;7.64;100.00;100247.58;108115;1281;21989;-65
2023/12/12 07:08:28;;;;;;;31.70;15.50;;;;;;;7.65;100.00;100252.47;108140;1277;21994;-65
2023/12/12 07:10:56;;;;;;;36.10;17.20;;;;;;;7.67;100.00;100262.42;108212;1278;21988;-60
2023/12/12 07:13:22;;;;;;;39.30;19.40;;;;;;;7.72;100.00;100271.31;108265;1287;21992;-61
2023/12/12 07:15:48;;;;;;;39.90;20.70;;;;;;;7.77;100.00;100275.13;108193;1278;21996;-61
2023/12/12 07:18:14;;;;;;;45.20;21.70;;;;;;;7.81;100.00;100272.34;108125;1287;21989;-66
2023/12/12 07:20:41;;;;;;;44.40;19.90;;;;;;;7.86;100.00;100263.77;108160;1285;22004;-66
2023/12/12 07:23:07;;;;;;;46.70;19.50;;;;;;;7.93;100.00;100266.36;108186;1277;21989;-66
2023/12/12 07:25:33;;;;;;;43.80;19.50;;;;;;;7.96;100.00;100267.05;108129;1282;21985;-66
2023/12/12 07:27:58;;;;;;;50.20;20.70;;;;;;;8.00;100.00;100260.91;108102;1288;22002;-66
2023/12/12 07:30:24;;;;;;;53.90;22.10;;;;;;;8.03;100.00;100264.94;108153;1278;21997;-61
2023/12/12 07:32:49;;;;;;;56.00;22.50;;;;;;;8.03;100.00;100260.90;108074;1277;21981;-60
2023/12/12 07:35:16;;;;;;;55.60;21.50;;;;;;;8.01;100.00;100260.39;108134;1288;21986;-62
2023/12/12 07:37:42;;;;;;;53.80;22.20;;;;;;;8.01;100.00;100264.77;108113;1278;21988;-66
2023/12/12 07:40:08;;;;;;;56.00;22.80;;;;;;;8.06;100.00;100267.02;108169;1283;21985;-61
2023/12/12 07:42:34;;;;;;;57.50;24.00;;;;;;;8.12;100.00;100264.20;108150;1283;21994;-65
2023/12/12 07:45:01;;;;;;;58.40;23.30;;;;;;;8.16;100.00;100266.98;107465;1284;1002319;-60
2023/12/12 07:47:27;;;;;;;53.90;23.30;;;;;;;8.22;100.00;100268.34;108102;1284;21994;-61
2023/12/12 07:49:53;;;;;;;55.10;23.60;;;;;;;8.30;100.00;100264.81;108089;1287;23715;-65
2023/12/12 07:52:19;;;;;;;60.40;25.90;;;;;;;8.36;100.00;100263.56;108196;1276;22030;-61
2023/12/12 07:54:45;;;;;;;56.40;24.10;;;;;;;8.41;100.00;100264.23;108136;1277;22031;-67
2023/12/12 07:57:11;;;;;;;50.70;21.70;;;;;;;8.43;100.00;100264.91;108139;1284;21995;-67
2023/12/12 07:59:37;;;;;;;55.40;23.90;;;;;;;8.44;100.00;100266.48;108124;1277;21984;-67
2023/12/12 08:02:02;;;;;;;54.90;22.00;;;;;;;8.46;100.00;100269.09;108102;1287;21986;-66
2023/12/12 08:04:28;;;;;;;54.70;21.80;;;;;;;8.46;100.00;100272.61;108096;1282;21984;-61
2023/12/12 08:06:54;;;;;;;53.80;21.70;;;;;;;8.43;100.00;100270.35;108104;1276;21989;-61
2023/12/12 08:09:20;;;;;;;52.20;21.70;;;;;;;8.47;100.00;100272.42;108134;1277;21971;-61
2023/12/12 08:11:46;;;;;;;63.90;24.60;;;;;;;8.52;100.00;100270.16;108149;1281;22448;-67
2023/12/12 08:14:11;;;;;;;58.10;24.00;;;;;;;8.52;100.00;100267.36;108152;1287;21985;-65
2023/12/12 08:16:39;;;;;;;59.50;25.60;;;;;;;8.53;100.00;100262.28;108082;1287;21991;-66
2023/12/12 08:19:05;;;;;;;49.70;23.30;;;;;;;8.59;100.00;100257.17;108104;1276;22036;-61
2023/12/12 08:21:31;;;;;;;53.10;22.90;;;;;;;8.63;100.00;100252.59;108217;1287;21998;-67
2023/12/12 08:23:56;;;;;;;47.90;21.10;;;;;;;8.67;100.00;100252.91;108227;1283;21956;-67
2023/12/12 08:26:22;;;;;;;52.10;22.50;;;;;;;8.71;100.00;100251.15;108384;1286;21984;-65
2023/12/12 08:28:49;;;;;;;52.90;22.40;;;;;;;8.80;100.00;100247.95;108140;1288;23049;-61
2023/12/12 08:31:15;;;;;;;51.20;21.20;;;;;;;8.92;100.00;100240.85;108353;1283;21989;-61
2023/12/12 08:33:42;;;;;;;54.60;21.10;;;;;;;9.04;100.00;100235.15;108112;1276;21997;-61
2023/12/12 08:36:08;;;;;;;55.40;21.90;;;;;;;9.16;100.00;100235.76;108107;1281;22456;-60
2023/12/12 08:38:33;;;;;;;57.00;22.50;;;;;;;9.24;100.00;100233.06;108094;1275;23063;-65
2023/12/12 08:40:59;;;;;;;59.40;22.20;;;;;;;9.29;100.00;100225.31;108094;1284;22023;-65
2023/12/12 08:43:25;;;;;;;55.10;20.30;;;;;;;9.36;100.00;100224.20;108089;1284;21989;-60
2023/12/12 08:45:52;;;;;;;52.90;21.00;;;;;;;9.46;100.00;100231.28;108129;1283;21987;-64
2023/12/12 08:48:18;;;;;;;46.00;19.90;;;;;;;9.49;100.00;100233.34;108149;1284;21984;-66
2023/12/12 08:50:44;;;;;;;52.10;21.90;;;;;;;9.44;100.00;100223.06;108193;1274;21998;-66
2023/12/12 08:53:10;;;;;;;53.70;21.20;;;;;;;9.46;100.00;100221.64;108202;1287;24021;-66
2023/12/12 08:55:36;;;;;;;49.20;21.20;;;;;;;9.55;100.00;100215.05;108084;1287;22736;-66
2023/12/12 08:58:04;;;;;;;40.40;17.70;;;;;;;9.62;100.00;100214.46;108211;1287;21995;-66
2023/12/12 09:00:30;;;;;;;39.80;18.60;;;;;;;9.69;100.00;100215.98;108125;1283;21990;-66
2023/12/12 09:02:55;;;;;;;37.10;17.70;;;;;;;9.76;100.00;100222.20;108081;1281;21992;-65
2023/12/12 09:05:21;;;;;;;42.80;19.50;;;;;;;9.82;100.00;100224.58;108183;1287;21991;-65
2023/12/12 09:07:47;;;;;;;33.70;16.00;;;;;;;9.87;100.00;100223.30;108165;1287;21981;-66
2023/12/12 09:10:12;;;;;;;32.80;16.40;;;;;;;9.87;100.00;100218.40;108205;1287;22045;-65
2023/12/12 09:12:38;;;;;;;33.40;16.10;;;;;;;9.83;100.00;100220.35;108112;1287;24503;-66
2023/12/12 09:15:05;;;;;;;42.70;20.20;;;;;;;9.78;100.00;100219.89;108112;1277;22044;-60
2023/12/12 09:17:31;;;;;;;38.10;17.90;;;;;;;9.70;100.00;100218.94;108127;1288;21989;-65
2023/12/12 09:19:57;;;;;;;35.20;17.60;;;;;;;9.62;100.00;100214.29;108295;1277;21996;-60
2023/12/12 09:22:23;;;;;;;37.50;18.90;;;;;;;9.55;100.00;100211.56;108109;1287;21995;-60
2023/12/12 09:24:48;;;;;;;42.00;19.70;;;;;;;9.49;100.00;100207.60;108115;1276;22023;-60
2023/12/12 09:27:15;;;;;;;37.40;17.40;;;;;;;9.46;100.00;100203.77;108071;1283;21986;-65
2023/12/12 09:29:43;;;;;;;40.80;17.00;;;;;;;9.50;100.00;100196.73;108131;1287;21991;-61
2023/12/12 09:32:09;;;;;;;40.80;18.40;;;;;;;9.58;100.00;100188.23;108111;1288;21994;-61
2023/12/12 09:34:35;;;;;;;46.50;20.50;;;;;;;9.59;100.00;100185.59;108085;1287;21989;-60
2023/12/12 09:37:00;;;;;;;46.90;19.80;;;;;;;9.61;100.00;100179.78;108086;1287;24028;-66
2023/12/12 09:39:26;;;;;;;44.50;21.30;;;;;;;9.72;100.00;100179.30;108105;1277;21995;-65
2023/12/12 09:41:51;;;;;;;44.90;19.60;;;;;;;9.79;100.00;100178.70;108109;1284;21992;-64
2023/12/12 09:44:17;;;;;;;45.60;19.20;;;;;;;9.84;100.00;100184.79;106386;1287;1003201;-61
2023/12/12 09:46:43;;;;;;;42.10;19.90;;;;;;;9.89;100.00;100189.10;108066;1284;21987;-65
2023/12/12 09:49:11;;;;;;;39.90;19.20;;;;;;;9.90;100.00;100182.09;108108;1287;21981;-61
2023/12/12 09:51:47;;;;;;;39.90;18.50;;;;;;;9.88;100.00;100175.09;108120;1281;22452;-65
2023/12/12 09:54:13;;;;;;;40.90;18.20;;;;;;;9.93;100.00;100173.10;107872;1287;21994;-61
2023/12/12 09:56:39;;;;;;;42.50;18.50;;;;;;;9.97;100.00;100172.69;108130;1283;24384;-61
2023/12/12 09:59:07;;;;;;;53.60;21.90;;;;;;;10.02;100.00;100175.95;108113;1287;21995;-65
2023/12/12 10:01:34;;;;;;;54.30;24.60;;;;;;;10.04;100.00;100175.05;108126;1286;21988;-65
2023/12/12 10:04:05;;;;;;;50.00;21.20;;;;;;;10.07;100.00;100167.84;108108;1287;21996;-62
2023/12/12 10:06:44;;;;;;;49.70;20.00;;;;;;;10.13;100.00;100165.66;108175;1278;21999;-62
2023/12/12 10:09:09;;;;;;;51.20;21.30;;;;;;;10.15;100.00;100164.21;108182;1287;23989;-61
2023/12/12 10:11:35;;;;;;;48.70;19.80;;;;;;;10.13;100.00;100160.92;108061;1287;23641;-65
2023/12/12 10:14:01;;;;;;;45.80;18.20;;;;;;;10.16;100.00;100164.02;108107;1287;22306;-61
2023/12/12 10:16:27;;;;;;;49.60;20.70;;;;;;;10.21;100.00;100165.89;108117;1281;21996;-66
2023/12/12 10:18:53;;;;;;;58.90;23.30;;;;;;;10.25;100.00;100170.02;108226;1284;21989;-66
2023/12/12 10:21:22;;;;;;;64.00;24.90;;;;;;;10.28;100.00;100169.83;108193;1281;21996;-66
2023/12/12 10:23:50;;;;;;;61.70;24.20;;;;;;;10.28;100.00;100166.84;108091;1286;21988;-61
2023/12/12 10:26:24;;;;;;;57.00;23.70;;;;;;;10.27;100.00;100168.77;108192;1288;22451;-61
2023/12/12 10:28:51;;;;;;;58.90;22.00;;;;;;;10.28;100.00;100171.23;108023;1286;21983;-65
2023/12/12 10:31:18;;;;;;;53.10;21.60;;;;;;;10.29;100.00;100172.61;108128;1288;21987;-62
2023/12/12 10:33:46;;;;;;;51.50;21.40;;;;;;;10.31;100.00;100168.39;108114;1287;22513;-66
2023/12/12 10:36:12;;;;;;;52.80;21.80;;;;;;;10.31;100.00;100169.77;108133;1288;22031;-64
2023/12/12 10:38:40;;;;;;;57.80;22.60;;;;;;;10.33;100.00;100165.18;108056;1284;21989;-65
2023/12/12 10:41:11;;;;;;;61.70;25.30;;;;;;;10.35;100.00;100158.84;108123;1278;21987;-65
2023/12/12 10:43:38;;;;;;;65.00;25.80;;;;;;;10.37;100.00;100159.88;108114;1283;21989;-62
2023/12/12 10:46:04;;;;;;;56.80;23.40;;;;;;;10.39;100.00;100155.98;107975;1288;21996;-65
2023/12/12 10:48:29;;;;;;;63.70;23.40;;;;;;;10.40;100.00;100157.94;108034;1287;22005;-61
2023/12/12 10:50:55;;;;;;;58.40;21.60;;;;;;;10.40;100.00;100158.80;108146;1287;21995;-61
2023/12/12 10:53:21;;;;;;;59.40;22.30;;;;;;;10.42;100.00;100157.72;107968;1287;21993;-65
2023/12/12 10:55:47;;;;;;;55.60;21.00;;;;;;;10.43;100.00;100154.38;108126;1287;22004;-61